createdAt,value
2023-07-03T00:00:12.908Z,4.31
2023-07-03T00:02:40.602Z,4.05
2023-07-03T00:05:09.863Z,4.39
2023-07-03T00:07:40.350Z,4.31
2023-07-03T00:10:08.993Z,4.47
2023-07-03T00:12:36.024Z,4.37
2023-07-03T00:15:03.155Z,4.34
2023-07-03T00:17:29.785Z,4.06
2023-07-03T00:19:56.460Z,4.20
2023-07-03T00:22:23.163Z,4.11
2023-07-03T00:24:49.811Z,4.28
2023-07-03T00:27:16.448Z,4.33
2023-07-03T00:29:43.007Z,4.14
2023-07-03T00:32:09.606Z,4.24
2023-07-03T00:34:36.144Z,4.08
2023-07-03T00:37:02.888Z,4.34
2023-07-03T00:39:29.523Z,4.69
2023-07-03T00:41:56.295Z,4.38
2023-07-03T00:44:23.900Z,4.27
2023-07-03T00:46:52.196Z,4.17
2023-07-03T00:49:21.518Z,4.48
2023-07-03T00:51:54.649Z,4.05
2023-07-03T00:54:21.808Z,4.20
2023-07-03T00:56:48.575Z,3.99
2023-07-03T00:59:16.550Z,4.29
2023-07-03T01:01:56.607Z,4.10
2023-07-03T01:04:32.350Z,4.58
2023-07-03T01:07:08.939Z,4.29
2023-07-03T01:09:49.157Z,4.02
2023-07-03T01:12:17.759Z,4.16
2023-07-03T01:14:46.942Z,4.51
2023-07-03T01:17:16.189Z,4.38
2023-07-03T01:19:46.514Z,4.39
2023-07-03T01:22:50.369Z,4.31
2023-07-03T01:25:23.477Z,4.28
2023-07-03T01:27:54.298Z,4.30
2023-07-03T01:30:23.795Z,4.33
2023-07-03T01:32:54.501Z,4.51
2023-07-03T01:35:23.878Z,4.24
2023-07-03T01:37:54.232Z,4.43
2023-07-03T01:40:25.813Z,4.38
2023-07-03T01:42:55.847Z,4.12
2023-07-03T01:45:22.756Z,4.31
2023-07-03T01:47:49.462Z,4.23
2023-07-03T01:50:24.768Z,4.30
2023-07-03T01:52:59.020Z,4.50
2023-07-03T01:55:44.386Z,4.77
2023-07-03T01:58:43.401Z,4.32
2023-07-03T02:01:21.680Z,4.62
2023-07-03T02:04:03.044Z,4.49
2023-07-03T02:06:35.611Z,4.35
2023-07-03T02:09:03.124Z,4.43
2023-07-03T02:11:29.896Z,4.34
2023-07-03T02:13:56.484Z,4.33
2023-07-03T02:16:23.145Z,4.39
2023-07-03T02:18:50.505Z,4.41
2023-07-03T02:21:17.861Z,4.43
2023-07-03T02:23:45.277Z,4.70
2023-07-03T02:26:11.953Z,4.42
2023-07-03T02:28:38.578Z,4.52
2023-07-03T02:31:05.211Z,4.36
2023-07-03T02:33:32.196Z,4.66
2023-07-03T02:36:02.670Z,4.39
2023-07-03T02:38:29.271Z,4.60
2023-07-03T02:40:55.929Z,4.45
2023-07-03T02:43:22.506Z,4.56
2023-07-03T02:45:49.906Z,4.78
2023-07-03T02:48:16.935Z,4.71
2023-07-03T02:50:43.713Z,4.64
2023-07-03T02:53:10.327Z,4.55
2023-07-03T02:55:37.068Z,4.74
2023-07-03T02:58:03.901Z,4.36
2023-07-03T03:00:30.688Z,4.63
2023-07-03T03:02:57.346Z,4.63
2023-07-03T03:05:23.929Z,4.32
2023-07-03T03:07:50.540Z,4.71
2023-07-03T03:10:17.125Z,4.81
2023-07-03T03:12:43.782Z,4.62
2023-07-03T03:15:10.800Z,4.50
2023-07-03T03:17:37.612Z,4.66
2023-07-03T03:20:05.270Z,5.14
2023-07-03T03:22:31.896Z,4.51
2023-07-03T03:24:59.635Z,4.87
2023-07-03T03:27:26.254Z,4.82
2023-07-03T03:29:52.889Z,5.07
2023-07-03T03:32:19.609Z,4.63
2023-07-03T03:34:46.194Z,5.19
2023-07-03T03:37:12.901Z,5.14
2023-07-03T03:39:39.531Z,4.57
2023-07-03T03:42:06.368Z,5.27
2023-07-03T03:44:32.988Z,5.23
2023-07-03T03:46:59.598Z,5.28
2023-07-03T03:49:26.191Z,4.81
2023-07-03T03:51:52.741Z,5.12
2023-07-03T03:54:20.335Z,4.92
2023-07-03T03:56:47.128Z,4.93
2023-07-03T03:59:13.792Z,4.67
2023-07-03T04:01:40.855Z,4.78
2023-07-03T04:04:07.456Z,4.76
2023-07-03T04:06:36.481Z,4.81
2023-07-03T04:09:03.124Z,4.72
2023-07-03T04:11:31.432Z,4.67
2023-07-03T04:13:58.313Z,4.80
2023-07-03T04:16:27.658Z,4.87
2023-07-03T04:18:54.310Z,4.51
2023-07-03T04:21:21.431Z,4.42
2023-07-03T04:23:48.630Z,4.34
2023-07-03T04:26:16.400Z,4.62
2023-07-03T04:28:43.014Z,4.69
2023-07-03T04:31:09.684Z,4.65
2023-07-03T04:33:36.325Z,4.64
2023-07-03T04:36:03.192Z,4.68
2023-07-03T04:38:29.733Z,4.33
2023-07-03T04:40:57.562Z,4.54
2023-07-03T04:43:24.254Z,4.59
2023-07-03T04:45:53.622Z,4.55
2023-07-03T04:48:20.719Z,4.56
2023-07-03T04:50:49.968Z,4.35
2023-07-03T04:53:21.897Z,4.61
2023-07-03T04:55:49.780Z,4.36
2023-07-03T04:58:16.778Z,4.47
2023-07-03T05:00:43.455Z,3.94
2023-07-03T05:03:10.456Z,4.23
2023-07-03T05:05:37.296Z,3.49
2023-07-03T05:08:04.202Z,3.32
2023-07-03T05:10:31.328Z,2.98
2023-07-03T05:12:58.109Z,2.81
2023-07-03T05:15:26.150Z,2.77
2023-07-03T05:17:57.701Z,2.35
2023-07-03T05:20:26.846Z,2.24
2023-07-03T05:22:54.050Z,2.28
2023-07-03T05:25:20.804Z,2.19
2023-07-03T05:27:47.865Z,2.09
2023-07-03T05:30:14.948Z,2.25
2023-07-03T05:32:41.959Z,2.16
2023-07-03T05:35:09.460Z,1.90
2023-07-03T05:37:39.541Z,1.83
2023-07-03T05:40:08.565Z,2.06
2023-07-03T05:42:36.903Z,1.89
2023-07-03T05:45:04.916Z,2.25
2023-07-03T05:47:31.659Z,1.98
2023-07-03T05:49:58.765Z,2.10
2023-07-03T05:52:25.637Z,2.21
2023-07-03T05:54:52.236Z,1.89
2023-07-03T05:57:18.851Z,1.94
2023-07-03T05:59:45.522Z,2.04
2023-07-03T06:02:15.300Z,2.04
2023-07-03T06:04:42.388Z,2.28
2023-07-03T06:07:10.328Z,1.98
2023-07-03T06:09:37.502Z,2.04
2023-07-03T06:12:05.813Z,2.01
2023-07-03T06:14:33.708Z,2.24
2023-07-03T06:17:01.791Z,2.22
2023-07-03T06:19:29.669Z,1.92
2023-07-03T06:21:56.942Z,2.22
2023-07-03T06:24:24.081Z,1.96
2023-07-03T06:26:51.558Z,2.13
2023-07-03T06:29:18.195Z,2.18
2023-07-03T06:31:44.793Z,1.98
2023-07-03T06:34:11.407Z,2.11
2023-07-03T06:36:38.084Z,2.29
2023-07-03T06:39:05.914Z,2.00
2023-07-03T06:41:35.775Z,1.98
2023-07-03T06:44:04.681Z,2.13
2023-07-03T06:46:31.681Z,2.04
2023-07-03T06:48:58.658Z,2.02
2023-07-03T06:51:26.033Z,2.08
2023-07-03T06:53:53.079Z,2.05
2023-07-03T06:56:21.646Z,2.10
2023-07-03T06:58:51.816Z,1.92
2023-07-03T07:01:22.091Z,2.08
2023-07-03T07:03:49.206Z,2.07
2023-07-03T07:06:26.464Z,1.97
2023-07-03T07:08:54.585Z,2.02
2023-07-03T07:11:25.091Z,2.24
2023-07-03T07:13:53.299Z,1.87
2023-07-03T07:16:35.901Z,1.95
2023-07-03T07:19:05.232Z,1.91
2023-07-03T07:21:33.979Z,2.00
2023-07-03T07:24:04.362Z,1.97
2023-07-03T07:26:34.870Z,1.74
2023-07-03T07:29:02.391Z,1.89
2023-07-03T07:31:30.110Z,1.86
2023-07-03T07:33:57.208Z,1.78
2023-07-03T07:36:26.484Z,1.96
2023-07-03T07:38:56.742Z,1.75
2023-07-03T07:41:26.267Z,1.63
2023-07-03T07:43:54.724Z,1.75
2023-07-03T07:46:22.432Z,1.81
2023-07-03T07:48:49.115Z,2.08
2023-07-03T07:51:16.026Z,1.82
2023-07-03T07:53:42.696Z,1.88
2023-07-03T07:56:11.270Z,1.95
2023-07-03T07:58:39.042Z,1.98
2023-07-03T08:01:07.134Z,1.89
2023-07-03T08:03:34.025Z,1.90
2023-07-03T08:06:04.504Z,2.02
2023-07-03T08:08:33.313Z,1.98
2023-07-03T08:11:02.791Z,1.83
2023-07-03T08:13:31.510Z,2.19
2023-07-03T08:15:58.724Z,2.14
2023-07-03T08:18:27.004Z,1.93
2023-07-03T08:20:54.360Z,1.94
2023-07-03T08:23:22.161Z,1.94
2023-07-03T08:25:54.350Z,1.96
2023-07-03T08:28:22.314Z,1.91
2023-07-03T08:30:49.493Z,1.94
2023-07-03T08:33:17.203Z,1.90
2023-07-03T08:38:14.038Z,2.14
2023-07-03T08:40:43.102Z,2.01
2023-07-03T08:43:16.411Z,2.09
2023-07-03T08:45:47.589Z,2.21
2023-07-03T08:48:19.595Z,2.02
2023-07-03T08:50:51.681Z,2.27
2023-07-03T08:53:23.439Z,2.03
2023-07-03T08:56:05.151Z,2.06
2023-07-03T08:58:32.864Z,2.05
2023-07-03T09:01:21.929Z,2.12
2023-07-03T09:03:58.028Z,2.14
2023-07-03T09:06:41.573Z,2.07
2023-07-03T09:09:35.286Z,1.91
2023-07-03T09:12:04.894Z,2.08
2023-07-03T09:14:43.244Z,2.11
2023-07-03T09:17:12.601Z,2.00
2023-07-03T09:19:48.459Z,2.01
2023-07-03T09:22:47.525Z,1.88
2023-07-03T09:25:24.060Z,2.05
2023-07-03T09:27:55.864Z,1.69
2023-07-03T09:30:22.554Z,1.98
2023-07-03T09:32:49.188Z,1.80
2023-07-03T09:35:21.715Z,1.67
2023-07-03T09:37:58.226Z,1.83
2023-07-03T09:40:28.051Z,1.78
2023-07-03T09:42:54.852Z,2.00
2023-07-03T09:45:26.482Z,1.97
2023-07-03T09:48:00.071Z,1.83
2023-07-03T09:50:36.084Z,1.73
2023-07-03T09:53:09.880Z,1.67
2023-07-03T09:55:37.722Z,1.99
2023-07-03T09:58:16.324Z,1.76
2023-07-03T10:00:56.435Z,1.80
2023-07-03T10:03:30.862Z,2.11
2023-07-03T10:12:12.783Z,1.77
2023-07-03T10:14:56.954Z,1.84
2023-07-03T10:17:35.206Z,1.75
2023-07-03T10:20:10.960Z,1.72
2023-07-03T10:22:44.457Z,2.14
2023-07-03T10:25:21.984Z,1.89
2023-07-03T10:27:56.194Z,1.77
2023-07-03T10:30:26.037Z,1.83
2023-07-03T10:35:44.051Z,1.71
2023-07-03T10:38:47.316Z,1.72
2023-07-03T10:41:51.666Z,1.93
2023-07-03T10:44:25.259Z,1.97
2023-07-03T10:47:22.061Z,1.89
2023-07-03T10:49:48.778Z,1.69
2023-07-03T10:52:21.877Z,1.95
2023-07-03T10:55:05.102Z,1.69
2023-07-03T10:57:59.282Z,1.72
2023-07-03T11:00:40.222Z,2.12
2023-07-03T11:03:28.650Z,2.24
2023-07-03T11:06:09.996Z,2.27
2023-07-03T11:08:58.949Z,2.05
2023-07-03T11:11:46.076Z,2.20
2023-07-03T11:14:27.144Z,2.27
2023-07-03T11:16:56.835Z,2.39
2023-07-03T11:22:51.123Z,2.62
2023-07-03T11:25:31.124Z,2.74
2023-07-03T11:28:11.208Z,2.38
2023-07-03T11:30:43.165Z,2.45
2023-07-03T11:33:11.760Z,2.52
2023-07-03T11:35:54.252Z,2.58
2023-07-03T11:40:58.169Z,2.14
2023-07-03T11:43:31.062Z,2.19
2023-07-03T11:45:57.585Z,2.06
2023-07-03T11:48:27.110Z,2.16
2023-07-03T11:51:03.114Z,1.84
2023-07-03T11:53:36.812Z,1.78
2023-07-03T11:56:06.307Z,2.11
2023-07-03T11:58:35.126Z,1.76
2023-07-03T12:01:28.233Z,1.95
2023-07-03T12:04:03.946Z,1.85
2023-07-03T12:06:51.562Z,1.75
2023-07-03T12:09:24.192Z,1.98
2023-07-03T12:12:08.857Z,1.77
2023-07-03T12:14:41.489Z,1.94
2023-07-03T12:17:35.536Z,2.35
2023-07-03T12:20:21.710Z,2.07
2023-07-03T12:22:51.369Z,1.95
2023-07-03T12:25:30.229Z,1.94
2023-07-03T12:28:11.061Z,2.17
2023-07-03T12:30:38.516Z,1.81
2023-07-03T12:33:05.439Z,1.81
2023-07-03T12:35:36.465Z,1.73
2023-07-03T12:38:08.422Z,1.65
2023-07-03T12:40:45.379Z,1.65
2023-07-03T12:43:20.128Z,1.76
2023-07-03T12:45:55.050Z,1.54
2023-07-03T12:48:23.851Z,1.65
2023-07-03T12:50:56.631Z,1.84
2023-07-03T12:53:24.797Z,1.59
2023-07-03T12:56:11.569Z,1.39
2023-07-03T12:58:38.804Z,1.39
2023-07-03T13:01:09.077Z,1.24
2023-07-03T13:03:41.216Z,1.40
2023-07-03T13:06:27.393Z,1.38
2023-07-03T13:08:55.996Z,1.19
2023-07-03T13:11:46.994Z,1.41
2023-07-03T13:14:23.064Z,1.40
2023-07-03T13:16:52.630Z,1.35
2023-07-03T13:19:36.543Z,1.39
2023-07-03T13:22:08.098Z,1.40
2023-07-03T13:24:43.089Z,1.46
2023-07-03T13:27:24.625Z,1.37
2023-07-03T13:29:56.628Z,1.22
2023-07-03T13:32:24.579Z,1.42
2023-07-03T13:35:06.303Z,1.35
2023-07-03T13:37:37.165Z,1.46
2023-07-03T13:40:04.917Z,1.33
2023-07-03T13:42:32.027Z,1.34
2023-07-03T13:44:58.958Z,1.47
2023-07-03T13:47:28.603Z,1.35
2023-07-03T13:49:56.149Z,1.58
2023-07-03T13:52:22.735Z,1.40
2023-07-03T13:54:49.421Z,1.41
2023-07-03T13:57:16.014Z,1.36
2023-07-03T13:59:42.602Z,1.43
2023-07-03T14:02:09.265Z,1.40
2023-07-03T14:04:36.048Z,1.47
2023-07-03T14:07:02.646Z,1.47
2023-07-03T14:09:29.233Z,1.43
2023-07-03T14:11:55.814Z,1.44
2023-07-03T14:14:22.654Z,1.53
2023-07-03T14:16:50.450Z,1.61
2023-07-03T14:19:17.060Z,1.46
2023-07-03T14:21:43.801Z,1.57
2023-07-03T14:24:10.522Z,1.65
2023-07-03T14:26:37.211Z,1.81
2023-07-03T14:29:03.835Z,1.79
2023-07-03T14:31:30.569Z,1.74
2023-07-03T14:33:57.234Z,1.69
2023-07-03T14:36:23.918Z,1.69
2023-07-03T14:38:50.745Z,1.92
2023-07-03T14:41:17.650Z,1.99
2023-07-03T14:43:44.415Z,2.23
2023-07-03T14:46:10.965Z,2.20
2023-07-03T14:48:37.561Z,1.96
2023-07-03T14:51:04.586Z,1.97
2023-07-03T14:53:31.321Z,2.32
2023-07-03T14:56:01.850Z,2.17
2023-07-03T14:58:30.091Z,2.37
2023-07-03T15:01:02.180Z,2.15
2023-07-03T15:03:29.355Z,2.16
2023-07-03T15:05:56.081Z,2.09
2023-07-03T15:08:22.704Z,2.43
2023-07-03T15:10:49.284Z,2.33
2023-07-03T15:13:16.752Z,2.37
2023-07-03T15:15:51.129Z,2.45
2023-07-03T15:18:18.258Z,2.72
2023-07-03T15:20:46.778Z,2.91
2023-07-03T15:23:15.529Z,2.65
2023-07-03T15:25:42.774Z,2.47
2023-07-03T15:28:09.357Z,2.39
2023-07-03T15:30:39.603Z,2.30
2023-07-03T15:33:06.891Z,2.21
2023-07-03T15:35:33.512Z,2.21
2023-07-03T15:38:00.064Z,2.23
2023-07-03T15:40:26.907Z,2.12
2023-07-03T15:42:54.242Z,2.01
2023-07-03T15:45:23.135Z,1.90
2023-07-03T15:47:50.164Z,2.11
2023-07-03T15:50:16.993Z,2.29
2023-07-03T15:52:43.581Z,2.37
2023-07-03T15:55:10.153Z,2.09
2023-07-03T15:57:36.827Z,1.99
2023-07-03T16:00:04.312Z,2.25
2023-07-03T16:02:30.934Z,2.48
2023-07-03T16:04:57.582Z,2.18
2023-07-03T16:07:24.222Z,2.36
2023-07-03T16:09:50.791Z,2.33
2023-07-03T16:12:17.440Z,2.49
2023-07-03T16:14:44.482Z,2.32
2023-07-03T16:17:11.144Z,2.35
2023-07-03T16:19:37.811Z,2.34
2023-07-03T16:22:04.655Z,2.40
2023-07-03T16:24:31.453Z,2.22
2023-07-03T16:26:57.999Z,2.36
2023-07-03T16:29:24.629Z,2.36
2023-07-03T16:31:51.299Z,2.49
2023-07-03T16:34:17.925Z,2.49
2023-07-03T16:36:44.536Z,2.52
2023-07-03T16:39:11.135Z,2.53
2023-07-03T16:41:39.888Z,2.54
2023-07-03T16:44:06.623Z,2.49
2023-07-03T16:46:36.978Z,2.50
2023-07-03T16:49:05.688Z,2.45
2023-07-03T16:51:32.345Z,2.76
2023-07-03T16:53:58.961Z,2.57
2023-07-03T16:56:28.079Z,2.56
2023-07-03T16:59:00.518Z,2.72
2023-07-03T17:01:29.441Z,2.89
2023-07-03T17:03:56.873Z,2.93
2023-07-03T17:06:31.473Z,3.18
2023-07-03T17:08:59.193Z,3.31
2023-07-03T17:11:26.373Z,3.15
2023-07-03T17:13:53.201Z,3.37
2023-07-03T17:16:20.702Z,3.61
2023-07-03T17:18:47.383Z,3.15
2023-07-03T17:21:14.079Z,3.26
2023-07-03T17:23:40.784Z,3.42
2023-07-03T17:26:07.458Z,3.52
2023-07-03T17:28:34.040Z,3.47
2023-07-03T17:31:05.324Z,3.25
2023-07-03T17:33:33.430Z,3.43
2023-07-03T17:36:02.240Z,3.39
2023-07-03T17:38:29.387Z,3.39
2023-07-03T17:40:58.140Z,3.24
2023-07-03T17:43:24.722Z,3.35
2023-07-03T17:45:54.411Z,3.35
2023-07-03T17:48:22.294Z,3.35
2023-07-03T17:50:50.419Z,3.60
2023-07-03T17:53:17.459Z,3.29
2023-07-03T17:55:44.770Z,3.34
2023-07-03T17:58:11.701Z,3.08
2023-07-03T18:00:38.320Z,3.19
2023-07-03T18:03:05.938Z,3.04
2023-07-03T18:05:34.388Z,2.92
2023-07-03T18:08:01.475Z,3.21
2023-07-03T18:10:30.583Z,3.38
2023-07-03T18:12:58.426Z,3.42
2023-07-03T18:15:32.345Z,3.36
2023-07-03T18:18:06.412Z,3.19
2023-07-03T18:20:33.408Z,3.39
2023-07-03T18:23:00.031Z,3.39
2023-07-03T18:25:26.726Z,3.22
2023-07-03T18:27:53.433Z,3.33
2023-07-03T18:30:20.119Z,3.38
2023-07-03T18:32:46.999Z,3.34
2023-07-03T18:35:13.815Z,3.18
2023-07-03T18:37:40.575Z,3.15
2023-07-03T18:40:07.748Z,3.01
2023-07-03T18:42:34.372Z,3.00
2023-07-03T18:45:01.077Z,2.87
2023-07-03T18:47:30.921Z,2.95
2023-07-03T18:49:58.462Z,2.94
2023-07-03T18:52:25.693Z,3.31
2023-07-03T18:54:53.170Z,2.99
2023-07-03T18:57:20.038Z,2.93
2023-07-03T18:59:47.227Z,3.18
2023-07-03T19:02:16.092Z,3.17
2023-07-03T19:04:47.021Z,3.14
2023-07-03T19:07:13.955Z,3.15
2023-07-03T19:09:40.800Z,3.26
2023-07-03T19:12:10.581Z,3.34
2023-07-03T19:14:37.207Z,3.61
2023-07-03T19:17:05.025Z,3.05
2023-07-03T19:19:31.818Z,3.35
2023-07-03T19:21:58.408Z,3.30
2023-07-03T19:24:25.038Z,3.33
2023-07-03T19:26:51.649Z,3.55
2023-07-03T19:29:18.277Z,3.54
2023-07-03T19:31:44.933Z,3.42
2023-07-03T19:34:12.177Z,3.38
2023-07-03T19:36:38.813Z,3.84
2023-07-03T19:39:05.517Z,3.65
2023-07-03T19:41:32.095Z,3.49
2023-07-03T19:43:59.786Z,3.70
2023-07-03T19:46:26.638Z,3.81
2023-07-03T19:48:53.354Z,3.67
2023-07-03T19:51:20.011Z,3.16
2023-07-03T19:53:49.802Z,3.08
2023-07-03T19:56:21.557Z,2.88
2023-07-03T19:58:48.907Z,2.97
2023-07-03T20:01:17.291Z,2.45
2023-07-03T20:03:44.437Z,2.42
2023-07-03T20:06:23.487Z,2.18
2023-07-03T20:08:54.857Z,2.04
2023-07-03T20:11:22.417Z,2.15
2023-07-03T20:13:50.885Z,2.22
2023-07-03T20:16:19.501Z,2.68
2023-07-03T20:18:55.542Z,2.87
2023-07-03T20:21:23.195Z,2.70
2023-07-03T20:23:53.288Z,3.14
2023-07-03T20:26:20.221Z,2.88
2023-07-03T20:28:47.158Z,2.98
2023-07-03T20:31:15.759Z,3.20
2023-07-03T20:33:42.711Z,3.33
2023-07-03T20:36:13.209Z,3.36
2023-07-03T20:38:40.771Z,3.62
2023-07-03T20:41:11.859Z,3.81
2023-07-03T20:43:41.813Z,3.48
2023-07-03T20:46:14.871Z,3.51
2023-07-03T20:48:42.612Z,3.55
2023-07-03T20:51:14.190Z,3.56
2023-07-03T20:53:49.493Z,3.34
2023-07-03T20:56:18.459Z,3.25
2023-07-03T20:58:47.690Z,2.98
2023-07-03T21:01:17.216Z,2.97
2023-07-03T21:03:46.580Z,2.91
2023-07-03T21:06:18.083Z,2.65
2023-07-03T21:08:46.829Z,2.71
2023-07-03T21:11:15.909Z,3.03
2023-07-03T21:13:43.970Z,2.78
2023-07-03T21:16:12.763Z,2.59
2023-07-03T21:18:40.151Z,2.62
2023-07-03T21:21:20.467Z,2.26
2023-07-03T21:23:48.373Z,2.42
2023-07-03T21:26:21.927Z,2.40
2023-07-03T21:28:50.388Z,2.58
2023-07-03T21:31:20.130Z,2.48
2023-07-03T21:33:47.000Z,2.73
2023-07-03T21:36:17.473Z,2.95
2023-07-03T21:38:44.576Z,2.90
2023-07-03T21:41:16.225Z,2.99
2023-07-03T21:43:54.143Z,3.05
2023-07-03T21:46:23.625Z,3.25
2023-07-03T21:48:53.725Z,2.73
2023-07-03T21:51:21.156Z,2.74
2023-07-03T21:53:47.877Z,2.74
2023-07-03T21:56:21.037Z,2.59
2023-07-03T21:58:50.601Z,2.31
2023-07-03T22:01:30.234Z,2.37
2023-07-03T22:03:58.473Z,2.10
2023-07-03T22:06:27.145Z,1.91
2023-07-03T22:08:54.801Z,2.14
2023-07-03T22:11:22.753Z,2.19
2023-07-03T22:13:49.471Z,2.16
2023-07-03T22:16:17.928Z,1.94
2023-07-03T22:18:45.746Z,1.85
2023-07-03T22:21:13.590Z,2.01
2023-07-03T22:23:40.386Z,1.99
2023-07-03T22:26:08.043Z,1.87
2023-07-03T22:28:34.728Z,1.82
2023-07-03T22:31:01.456Z,1.91
2023-07-03T22:33:29.266Z,1.89
2023-07-03T22:35:56.192Z,2.02
2023-07-03T22:38:23.100Z,1.82
2023-07-03T22:40:51.712Z,1.89
2023-07-03T22:43:20.846Z,2.15
2023-07-03T22:45:48.508Z,2.18
2023-07-03T22:48:15.938Z,2.17
2023-07-03T22:50:43.351Z,1.94
2023-07-03T22:53:11.636Z,1.93
2023-07-03T22:55:42.150Z,2.15
2023-07-03T22:58:10.317Z,1.93
2023-07-03T23:00:40.455Z,2.16
2023-07-03T23:03:08.472Z,2.34
2023-07-03T23:05:45.876Z,2.03
2023-07-03T23:08:17.688Z,2.20
2023-07-03T23:10:52.392Z,2.23
2023-07-03T23:13:21.903Z,2.20
2023-07-03T23:15:57.030Z,2.27
2023-07-03T23:18:24.150Z,2.15
2023-07-03T23:20:55.895Z,2.00
2023-07-03T23:23:22.870Z,2.22
2023-07-03T23:25:57.953Z,2.40
2023-07-03T23:28:32.449Z,2.51
2023-07-03T23:31:03.363Z,2.32
2023-07-03T23:33:33.635Z,2.41
2023-07-03T23:36:06.015Z,2.25
2023-07-03T23:38:33.897Z,2.50
2023-07-03T23:41:00.540Z,2.52
2023-07-03T23:43:27.747Z,2.52
2023-07-03T23:45:55.874Z,2.62
2023-07-03T23:48:23.491Z,2.39
2023-07-03T23:50:55.670Z,2.51
2023-07-03T23:53:24.560Z,2.78
2023-07-03T23:55:53.956Z,2.70
2023-07-03T23:58:22.923Z,2.79
